sensor_id;sensor_type;location;lat;lon;timestamp;P1;durP1;ratioP1;P2;durP2;ratioP2
5295;SDS011;2670;42.720;23.336;2023-05-16T00:00:50;19.73;;;13.73;;
5295;SDS011;2670;42.720;23.336;2023-05-16T00:03:18;20.30;;;14.67;;
5295;SDS011;2670;42.720;23.336;2023-05-16T00:05:45;19.03;;;13.83;;
5295;SDS011;2670;42.720;23.336;2023-05-16T00:08:13;19.93;;;14.87;;
5295;SDS011;2670;42.720;23.336;2023-05-16T00:10:40;22.80;;;14.70;;
5295;SDS011;2670;42.720;23.336;2023-05-16T00:13:06;24.23;;;15.47;;
5295;SDS011;2670;42.720;23.336;2023-05-16T00:15:34;19.37;;;14.10;;
5295;SDS011;2670;42.720;23.336;2023-05-16T00:18:02;21.10;;;15.30;;
5295;SDS011;2670;42.720;23.336;2023-05-16T00:20:29;23.43;;;16.00;;
5295;SDS011;2670;42.720;23.336;2023-05-16T00:22:56;22.50;;;14.30;;
5295;SDS011;2670;42.720;23.336;2023-05-16T00:25:26;20.97;;;15.27;;
5295;SDS011;2670;42.720;23.336;2023-05-16T00:27:53;22.50;;;13.33;;
5295;SDS011;2670;42.720;23.336;2023-05-16T00:30:20;22.13;;;14.40;;
5295;SDS011;2670;42.720;23.336;2023-05-16T00:32:47;19.33;;;14.60;;
5295;SDS011;2670;42.720;23.336;2023-05-16T00:35:14;21.00;;;14.60;;
5295;SDS011;2670;42.720;23.336;2023-05-16T00:37:40;21.93;;;14.67;;
5295;SDS011;2670;42.720;23.336;2023-05-16T00:40:07;26.10;;;15.23;;
5295;SDS011;2670;42.720;23.336;2023-05-16T00:42:36;22.10;;;14.00;;
5295;SDS011;2670;42.720;23.336;2023-05-16T00:45:03;20.20;;;14.97;;
5295;SDS011;2670;42.720;23.336;2023-05-16T00:47:31;20.00;;;14.43;;
5295;SDS011;2670;42.720;23.336;2023-05-16T00:49:58;23.17;;;14.47;;
5295;SDS011;2670;42.720;23.336;2023-05-16T00:52:24;22.60;;;14.90;;
5295;SDS011;2670;42.720;23.336;2023-05-16T00:54:51;19.50;;;14.73;;
5295;SDS011;2670;42.720;23.336;2023-05-16T00:57:18;18.47;;;13.97;;
5295;SDS011;2670;42.720;23.336;2023-05-16T00:59:46;17.47;;;13.77;;
5295;SDS011;2670;42.720;23.336;2023-05-16T01:02:13;19.60;;;14.83;;
5295;SDS011;2670;42.720;23.336;2023-05-16T01:04:40;23.80;;;14.53;;
5295;SDS011;2670;42.720;23.336;2023-05-16T01:07:08;17.63;;;14.10;;
5295;SDS011;2670;42.720;23.336;2023-05-16T01:09:35;22.43;;;14.40;;
5295;SDS011;2670;42.720;23.336;2023-05-16T01:12:05;20.80;;;14.17;;
5295;SDS011;2670;42.720;23.336;2023-05-16T01:14:37;18.70;;;14.70;;
5295;SDS011;2670;42.720;23.336;2023-05-16T01:17:12;20.13;;;14.03;;
5295;SDS011;2670;42.720;23.336;2023-05-16T01:19:50;20.43;;;15.23;;
5295;SDS011;2670;42.720;23.336;2023-05-16T01:22:28;18.17;;;14.33;;
5295;SDS011;2670;42.720;23.336;2023-05-16T01:25:05;17.60;;;14.33;;
5295;SDS011;2670;42.720;23.336;2023-05-16T01:27:44;22.43;;;13.83;;
5295;SDS011;2670;42.720;23.336;2023-05-16T01:30:15;17.53;;;14.17;;
5295;SDS011;2670;42.720;23.336;2023-05-16T01:32:43;17.17;;;13.17;;
5295;SDS011;2670;42.720;23.336;2023-05-16T01:35:10;20.47;;;16.10;;
5295;SDS011;2670;42.720;23.336;2023-05-16T01:37:40;20.40;;;14.80;;
5295;SDS011;2670;42.720;23.336;2023-05-16T01:40:15;22.53;;;13.53;;
5295;SDS011;2670;42.720;23.336;2023-05-16T01:42:49;18.17;;;14.50;;
5295;SDS011;2670;42.720;23.336;2023-05-16T01:45:21;22.30;;;13.50;;
5295;SDS011;2670;42.720;23.336;2023-05-16T01:47:51;16.53;;;12.70;;
5295;SDS011;2670;42.720;23.336;2023-05-16T01:50:26;17.70;;;13.47;;
5295;SDS011;2670;42.720;23.336;2023-05-16T01:52:57;26.43;;;14.27;;
5295;SDS011;2670;42.720;23.336;2023-05-16T01:55:28;15.83;;;13.23;;
5295;SDS011;2670;42.720;23.336;2023-05-16T01:58:03;21.73;;;13.83;;
5295;SDS011;2670;42.720;23.336;2023-05-16T02:00:30;15.27;;;12.63;;
5295;SDS011;2670;42.720;23.336;2023-05-16T02:02:57;17.60;;;12.57;;
5295;SDS011;2670;42.720;23.336;2023-05-16T02:05:24;14.83;;;12.43;;
5295;SDS011;2670;42.720;23.336;2023-05-16T02:07:50;16.90;;;13.20;;
5295;SDS011;2670;42.720;23.336;2023-05-16T02:10:17;18.40;;;13.10;;
5295;SDS011;2670;42.720;23.336;2023-05-16T02:12:45;21.90;;;12.03;;
5295;SDS011;2670;42.720;23.336;2023-05-16T02:15:13;20.20;;;13.20;;
5295;SDS011;2670;42.720;23.336;2023-05-16T02:17:40;20.67;;;12.73;;
5295;SDS011;2670;42.720;23.336;2023-05-16T02:20:07;17.23;;;12.07;;
5295;SDS011;2670;42.720;23.336;2023-05-16T02:22:35;16.30;;;12.87;;
5295;SDS011;2670;42.720;23.336;2023-05-16T02:25:03;18.53;;;11.87;;
5295;SDS011;2670;42.720;23.336;2023-05-16T02:27:31;16.43;;;11.47;;
5295;SDS011;2670;42.720;23.336;2023-05-16T02:29:58;17.97;;;12.47;;
5295;SDS011;2670;42.720;23.336;2023-05-16T02:32:26;21.40;;;14.27;;
5295;SDS011;2670;42.720;23.336;2023-05-16T02:34:52;21.97;;;14.10;;
5295;SDS011;2670;42.720;23.336;2023-05-16T02:37:19;15.70;;;12.10;;
5295;SDS011;2670;42.720;23.336;2023-05-16T02:39:46;18.37;;;12.00;;
5295;SDS011;2670;42.720;23.336;2023-05-16T02:42:13;21.63;;;13.70;;
5295;SDS011;2670;42.720;23.336;2023-05-16T02:44:39;16.90;;;12.00;;
5295;SDS011;2670;42.720;23.336;2023-05-16T02:47:06;20.80;;;12.90;;
5295;SDS011;2670;42.720;23.336;2023-05-16T02:49:34;16.97;;;13.10;;
5295;SDS011;2670;42.720;23.336;2023-05-16T02:52:01;18.93;;;13.60;;
5295;SDS011;2670;42.720;23.336;2023-05-16T02:54:27;23.90;;;12.40;;
5295;SDS011;2670;42.720;23.336;2023-05-16T02:56:54;21.67;;;12.20;;
5295;SDS011;2670;42.720;23.336;2023-05-16T02:59:21;23.43;;;13.97;;
5295;SDS011;2670;42.720;23.336;2023-05-16T03:01:48;17.83;;;13.30;;
5295;SDS011;2670;42.720;23.336;2023-05-16T03:04:15;18.43;;;13.80;;
5295;SDS011;2670;42.720;23.336;2023-05-16T03:06:43;17.27;;;13.17;;
5295;SDS011;2670;42.720;23.336;2023-05-16T03:09:10;16.93;;;12.50;;
5295;SDS011;2670;42.720;23.336;2023-05-16T03:11:37;16.87;;;12.30;;
5295;SDS011;2670;42.720;23.336;2023-05-16T03:14:04;16.97;;;13.20;;
5295;SDS011;2670;42.720;23.336;2023-05-16T03:16:31;21.03;;;13.33;;
5295;SDS011;2670;42.720;23.336;2023-05-16T03:18:58;19.97;;;12.40;;
5295;SDS011;2670;42.720;23.336;2023-05-16T03:21:24;19.77;;;12.63;;
5295;SDS011;2670;42.720;23.336;2023-05-16T03:23:52;24.70;;;12.70;;
5295;SDS011;2670;42.720;23.336;2023-05-16T03:26:20;16.10;;;13.03;;
5295;SDS011;2670;42.720;23.336;2023-05-16T03:28:46;25.37;;;12.90;;
5295;SDS011;2670;42.720;23.336;2023-05-16T03:31:13;22.80;;;13.20;;
5295;SDS011;2670;42.720;23.336;2023-05-16T03:33:40;25.30;;;12.73;;
5295;SDS011;2670;42.720;23.336;2023-05-16T03:36:07;14.40;;;11.53;;
5295;SDS011;2670;42.720;23.336;2023-05-16T03:38:34;17.60;;;12.53;;
5295;SDS011;2670;42.720;23.336;2023-05-16T03:41:02;19.00;;;12.40;;
5295;SDS011;2670;42.720;23.336;2023-05-16T03:43:29;21.30;;;11.80;;
5295;SDS011;2670;42.720;23.336;2023-05-16T03:45:56;22.67;;;12.97;;
5295;SDS011;2670;42.720;23.336;2023-05-16T03:48:22;18.30;;;13.57;;
5295;SDS011;2670;42.720;23.336;2023-05-16T03:50:49;18.30;;;13.33;;
5295;SDS011;2670;42.720;23.336;2023-05-16T03:53:16;17.03;;;12.43;;
5295;SDS011;2670;42.720;23.336;2023-05-16T03:55:43;19.03;;;13.70;;
5295;SDS011;2670;42.720;23.336;2023-05-16T03:58:11;18.20;;;13.53;;
5295;SDS011;2670;42.720;23.336;2023-05-16T04:00:37;18.67;;;12.90;;
5295;SDS011;2670;42.720;23.336;2023-05-16T04:03:04;19.30;;;14.13;;
5295;SDS011;2670;42.720;23.336;2023-05-16T04:05:31;21.77;;;12.60;;
5295;SDS011;2670;42.720;23.336;2023-05-16T04:07:58;21.07;;;14.23;;
5295;SDS011;2670;42.720;23.336;2023-05-16T04:10:25;20.20;;;12.47;;
5295;SDS011;2670;42.720;23.336;2023-05-16T04:12:52;21.73;;;13.40;;
5295;SDS011;2670;42.720;23.336;2023-05-16T04:15:20;20.73;;;12.93;;
5295;SDS011;2670;42.720;23.336;2023-05-16T04:17:47;23.57;;;13.30;;
5295;SDS011;2670;42.720;23.336;2023-05-16T04:20:13;21.57;;;14.70;;
5295;SDS011;2670;42.720;23.336;2023-05-16T04:22:41;25.77;;;13.80;;
5295;SDS011;2670;42.720;23.336;2023-05-16T04:25:08;18.60;;;13.37;;
5295;SDS011;2670;42.720;23.336;2023-05-16T04:27:35;20.00;;;14.30;;
5295;SDS011;2670;42.720;23.336;2023-05-16T04:30:03;19.20;;;13.60;;
5295;SDS011;2670;42.720;23.336;2023-05-16T04:32:31;27.50;;;14.53;;
5295;SDS011;2670;42.720;23.336;2023-05-16T04:34:59;21.43;;;14.80;;
5295;SDS011;2670;42.720;23.336;2023-05-16T04:37:26;19.00;;;15.10;;
5295;SDS011;2670;42.720;23.336;2023-05-16T04:39:53;25.70;;;15.17;;
5295;SDS011;2670;42.720;23.336;2023-05-16T04:42:19;28.87;;;15.60;;
5295;SDS011;2670;42.720;23.336;2023-05-16T04:44:46;24.63;;;14.40;;
5295;SDS011;2670;42.720;23.336;2023-05-16T04:47:13;23.33;;;15.67;;
5295;SDS011;2670;42.720;23.336;2023-05-16T04:49:41;19.50;;;14.53;;
5295;SDS011;2670;42.720;23.336;2023-05-16T04:52:08;29.00;;;14.73;;
5295;SDS011;2670;42.720;23.336;2023-05-16T04:54:34;21.93;;;15.47;;
5295;SDS011;2670;42.720;23.336;2023-05-16T04:57:01;25.87;;;16.70;;
5295;SDS011;2670;42.720;23.336;2023-05-16T04:59:28;25.30;;;16.23;;
5295;SDS011;2670;42.720;23.336;2023-05-16T05:01:55;22.00;;;15.67;;
5295;SDS011;2670;42.720;23.336;2023-05-16T05:04:21;28.13;;;16.23;;
5295;SDS011;2670;42.720;23.336;2023-05-16T05:06:49;25.70;;;15.80;;
5295;SDS011;2670;42.720;23.336;2023-05-16T05:09:16;26.03;;;16.70;;
5295;SDS011;2670;42.720;23.336;2023-05-16T05:11:43;34.47;;;17.47;;
5295;SDS011;2670;42.720;23.336;2023-05-16T05:14:10;31.70;;;15.37;;
5295;SDS011;2670;42.720;23.336;2023-05-16T05:16:37;19.67;;;14.20;;
5295;SDS011;2670;42.720;23.336;2023-05-16T05:19:03;24.27;;;15.77;;
5295;SDS011;2670;42.720;23.336;2023-05-16T05:21:30;31.33;;;14.43;;
5295;SDS011;2670;42.720;23.336;2023-05-16T05:23:58;22.70;;;15.57;;
5295;SDS011;2670;42.720;23.336;2023-05-16T05:26:25;22.47;;;16.67;;
5295;SDS011;2670;42.720;23.336;2023-05-16T05:28:53;22.37;;;15.20;;
5295;SDS011;2670;42.720;23.336;2023-05-16T05:31:19;30.63;;;16.23;;
5295;SDS011;2670;42.720;23.336;2023-05-16T05:33:46;21.37;;;15.80;;
5295;SDS011;2670;42.720;23.336;2023-05-16T05:36:13;22.20;;;16.10;;
5295;SDS011;2670;42.720;23.336;2023-05-16T05:38:39;26.63;;;17.47;;
5295;SDS011;2670;42.720;23.336;2023-05-16T05:41:07;42.37;;;19.03;;
5295;SDS011;2670;42.720;23.336;2023-05-16T05:43:35;40.80;;;17.97;;
5295;SDS011;2670;42.720;23.336;2023-05-16T05:46:02;26.60;;;15.60;;
5295;SDS011;2670;42.720;23.336;2023-05-16T05:48:29;27.90;;;15.77;;
5295;SDS011;2670;42.720;23.336;2023-05-16T05:50:57;19.30;;;14.57;;
5295;SDS011;2670;42.720;23.336;2023-05-16T05:53:23;22.67;;;14.73;;
5295;SDS011;2670;42.720;23.336;2023-05-16T05:55:50;22.73;;;14.27;;
5295;SDS011;2670;42.720;23.336;2023-05-16T05:58:19;21.53;;;14.00;;
5295;SDS011;2670;42.720;23.336;2023-05-16T06:00:47;22.40;;;13.07;;
5295;SDS011;2670;42.720;23.336;2023-05-16T06:03:13;19.73;;;13.10;;
5295;SDS011;2670;42.720;23.336;2023-05-16T06:05:40;26.33;;;14.17;;
5295;SDS011;2670;42.720;23.336;2023-05-16T06:08:07;19.10;;;12.73;;
5295;SDS011;2670;42.720;23.336;2023-05-16T06:10:34;16.03;;;11.83;;
5295;SDS011;2670;42.720;23.336;2023-05-16T06:13:01;18.83;;;13.10;;
5295;SDS011;2670;42.720;23.336;2023-05-16T06:15:29;19.20;;;12.43;;
5295;SDS011;2670;42.720;23.336;2023-05-16T06:17:56;17.77;;;12.83;;
5295;SDS011;2670;42.720;23.336;2023-05-16T06:20:23;23.63;;;13.20;;
5295;SDS011;2670;42.720;23.336;2023-05-16T06:22:50;18.80;;;12.73;;
5295;SDS011;2670;42.720;23.336;2023-05-16T06:25:17;16.30;;;11.30;;
5295;SDS011;2670;42.720;23.336;2023-05-16T06:27:43;19.57;;;12.90;;
5295;SDS011;2670;42.720;23.336;2023-05-16T06:30:10;17.43;;;12.23;;
5295;SDS011;2670;42.720;23.336;2023-05-16T06:32:39;21.13;;;12.90;;
5295;SDS011;2670;42.720;23.336;2023-05-16T06:35:06;17.50;;;12.13;;
5295;SDS011;2670;42.720;23.336;2023-05-16T06:37:33;16.90;;;12.20;;
5295;SDS011;2670;42.720;23.336;2023-05-16T06:40:00;15.93;;;12.00;;
5295;SDS011;2670;42.720;23.336;2023-05-16T06:42:27;21.13;;;13.10;;
5295;SDS011;2670;42.720;23.336;2023-05-16T06:44:54;17.20;;;11.70;;
5295;SDS011;2670;42.720;23.336;2023-05-16T06:47:20;20.00;;;13.07;;
5295;SDS011;2670;42.720;23.336;2023-05-16T06:49:49;26.77;;;14.40;;
5295;SDS011;2670;42.720;23.336;2023-05-16T06:52:15;23.37;;;14.00;;
5295;SDS011;2670;42.720;23.336;2023-05-16T06:54:42;28.93;;;18.17;;
5295;SDS011;2670;42.720;23.336;2023-05-16T06:57:09;23.60;;;15.53;;
5295;SDS011;2670;42.720;23.336;2023-05-16T06:59:35;22.20;;;16.20;;
5295;SDS011;2670;42.720;23.336;2023-05-16T07:02:02;23.13;;;13.50;;
5295;SDS011;2670;42.720;23.336;2023-05-16T07:04:29;22.73;;;13.10;;
5295;SDS011;2670;42.720;23.336;2023-05-16T07:06:57;26.47;;;11.70;;
5295;SDS011;2670;42.720;23.336;2023-05-16T07:09:24;16.77;;;12.90;;
5295;SDS011;2670;42.720;23.336;2023-05-16T07:11:51;29.80;;;13.30;;
5295;SDS011;2670;42.720;23.336;2023-05-16T07:14:17;24.50;;;12.33;;
5295;SDS011;2670;42.720;23.336;2023-05-16T07:16:44;22.83;;;13.33;;
5295;SDS011;2670;42.720;23.336;2023-05-16T07:19:11;21.73;;;13.47;;
5295;SDS011;2670;42.720;23.336;2023-05-16T07:21:37;19.90;;;11.87;;
5295;SDS011;2670;42.720;23.336;2023-05-16T07:24:06;21.87;;;11.73;;
5295;SDS011;2670;42.720;23.336;2023-05-16T07:26:33;15.90;;;11.27;;
5295;SDS011;2670;42.720;23.336;2023-05-16T07:29:00;26.20;;;12.83;;
5295;SDS011;2670;42.720;23.336;2023-05-16T07:31:28;22.43;;;13.57;;
5295;SDS011;2670;42.720;23.336;2023-05-16T07:33:55;21.90;;;10.87;;
5295;SDS011;2670;42.720;23.336;2023-05-16T07:36:22;21.30;;;12.00;;
5295;SDS011;2670;42.720;23.336;2023-05-16T07:38:49;23.23;;;12.03;;
5295;SDS011;2670;42.720;23.336;2023-05-16T07:41:17;21.40;;;12.50;;
5295;SDS011;2670;42.720;23.336;2023-05-16T07:43:43;20.27;;;12.13;;
5295;SDS011;2670;42.720;23.336;2023-05-16T07:46:10;23.83;;;12.17;;
5295;SDS011;2670;42.720;23.336;2023-05-16T07:48:38;23.23;;;12.70;;
5295;SDS011;2670;42.720;23.336;2023-05-16T07:51:04;20.47;;;11.57;;
5295;SDS011;2670;42.720;23.336;2023-05-16T07:53:31;20.63;;;11.00;;
5295;SDS011;2670;42.720;23.336;2023-05-16T07:55:58;15.30;;;11.10;;
5295;SDS011;2670;42.720;23.336;2023-05-16T07:58:26;23.60;;;12.03;;
5295;SDS011;2670;42.720;23.336;2023-05-16T08:00:53;14.30;;;10.33;;
5295;SDS011;2670;42.720;23.336;2023-05-16T08:03:20;23.60;;;11.23;;
5295;SDS011;2670;42.720;23.336;2023-05-16T08:05:47;20.60;;;10.87;;
5295;SDS011;2670;42.720;23.336;2023-05-16T08:08:14;18.70;;;11.30;;
5295;SDS011;2670;42.720;23.336;2023-05-16T08:10:41;19.57;;;11.27;;
5295;SDS011;2670;42.720;23.336;2023-05-16T08:13:07;16.97;;;10.80;;
5295;SDS011;2670;42.720;23.336;2023-05-16T08:15:35;17.30;;;9.70;;
5295;SDS011;2670;42.720;23.336;2023-05-16T08:18:02;20.03;;;10.90;;
5295;SDS011;2670;42.720;23.336;2023-05-16T08:20:31;17.67;;;11.87;;
5295;SDS011;2670;42.720;23.336;2023-05-16T08:22:57;22.60;;;13.07;;
5295;SDS011;2670;42.720;23.336;2023-05-16T08:25:24;24.63;;;14.23;;
5295;SDS011;2670;42.720;23.336;2023-05-16T08:27:51;18.20;;;12.00;;
5295;SDS011;2670;42.720;23.336;2023-05-16T08:30:18;19.83;;;10.80;;
5295;SDS011;2670;42.720;23.336;2023-05-16T08:32:46;18.60;;;11.93;;
5295;SDS011;2670;42.720;23.336;2023-05-16T08:35:12;22.73;;;10.67;;
5295;SDS011;2670;42.720;23.336;2023-05-16T08:37:39;25.33;;;10.10;;
5295;SDS011;2670;42.720;23.336;2023-05-16T08:40:07;20.40;;;10.80;;
5295;SDS011;2670;42.720;23.336;2023-05-16T08:42:35;25.73;;;10.40;;
5295;SDS011;2670;42.720;23.336;2023-05-16T08:45:02;14.90;;;10.27;;
5295;SDS011;2670;42.720;23.336;2023-05-16T08:47:30;14.60;;;9.07;;
5295;SDS011;2670;42.720;23.336;2023-05-16T08:49:59;22.13;;;11.10;;
5295;SDS011;2670;42.720;23.336;2023-05-16T08:52:29;18.17;;;10.80;;
5295;SDS011;2670;42.720;23.336;2023-05-16T08:54:58;19.40;;;10.57;;
5295;SDS011;2670;42.720;23.336;2023-05-16T08:57:29;25.57;;;9.93;;
5295;SDS011;2670;42.720;23.336;2023-05-16T08:59:58;17.47;;;9.40;;
5295;SDS011;2670;42.720;23.336;2023-05-16T09:02:25;14.23;;;8.97;;
5295;SDS011;2670;42.720;23.336;2023-05-16T09:04:52;14.83;;;9.10;;
5295;SDS011;2670;42.720;23.336;2023-05-16T09:07:21;26.90;;;9.37;;
5295;SDS011;2670;42.720;23.336;2023-05-16T09:09:48;10.60;;;8.50;;
5295;SDS011;2670;42.720;23.336;2023-05-16T09:12:14;22.87;;;9.10;;
5295;SDS011;2670;42.720;23.336;2023-05-16T09:14:41;24.70;;;11.70;;
5295;SDS011;2670;42.720;23.336;2023-05-16T09:17:09;16.17;;;9.30;;
5295;SDS011;2670;42.720;23.336;2023-05-16T09:19:37;15.20;;;10.00;;
5295;SDS011;2670;42.720;23.336;2023-05-16T09:22:05;20.87;;;8.50;;
5295;SDS011;2670;42.720;23.336;2023-05-16T09:24:38;17.40;;;9.20;;
5295;SDS011;2670;42.720;23.336;2023-05-16T09:27:08;14.00;;;7.60;;
5295;SDS011;2670;42.720;23.336;2023-05-16T09:29:35;15.27;;;8.80;;
5295;SDS011;2670;42.720;23.336;2023-05-16T09:32:09;23.97;;;9.30;;
5295;SDS011;2670;42.720;23.336;2023-05-16T09:34:38;11.47;;;8.53;;
5295;SDS011;2670;42.720;23.336;2023-05-16T09:37:08;15.37;;;9.03;;
5295;SDS011;2670;42.720;23.336;2023-05-16T09:39:35;15.00;;;9.30;;
5295;SDS011;2670;42.720;23.336;2023-05-16T09:42:09;21.23;;;9.83;;
5295;SDS011;2670;42.720;23.336;2023-05-16T09:44:37;13.37;;;9.17;;
5295;SDS011;2670;42.720;23.336;2023-05-16T09:47:05;14.40;;;9.10;;
5295;SDS011;2670;42.720;23.336;2023-05-16T09:49:32;20.50;;;10.17;;
5295;SDS011;2670;42.720;23.336;2023-05-16T09:51:59;17.00;;;8.97;;
5295;SDS011;2670;42.720;23.336;2023-05-16T09:54:29;13.43;;;9.70;;
5295;SDS011;2670;42.720;23.336;2023-05-16T09:56:57;17.13;;;9.67;;
5295;SDS011;2670;42.720;23.336;2023-05-16T09:59:27;18.93;;;9.10;;
5295;SDS011;2670;42.720;23.336;2023-05-16T10:01:53;14.33;;;9.43;;
5295;SDS011;2670;42.720;23.336;2023-05-16T10:04:24;13.73;;;9.73;;
5295;SDS011;2670;42.720;23.336;2023-05-16T10:06:51;16.37;;;8.63;;
5295;SDS011;2670;42.720;23.336;2023-05-16T10:09:20;17.90;;;10.07;;
5295;SDS011;2670;42.720;23.336;2023-05-16T10:11:48;15.37;;;9.30;;
5295;SDS011;2670;42.720;23.336;2023-05-16T10:14:17;24.80;;;8.70;;
5295;SDS011;2670;42.720;23.336;2023-05-16T10:16:46;13.87;;;9.20;;
5295;SDS011;2670;42.720;23.336;2023-05-16T10:19:14;15.63;;;8.60;;
5295;SDS011;2670;42.720;23.336;2023-05-16T10:21:44;15.93;;;8.67;;
5295;SDS011;2670;42.720;23.336;2023-05-16T10:24:13;11.90;;;9.00;;
5295;SDS011;2670;42.720;23.336;2023-05-16T10:26:44;18.63;;;8.70;;
5295;SDS011;2670;42.720;23.336;2023-05-16T10:29:10;16.83;;;8.60;;
5295;SDS011;2670;42.720;23.336;2023-05-16T10:31:37;15.00;;;9.77;;
5295;SDS011;2670;42.720;23.336;2023-05-16T10:34:06;20.43;;;9.43;;
5295;SDS011;2670;42.720;23.336;2023-05-16T10:36:33;14.23;;;7.57;;
5295;SDS011;2670;42.720;23.336;2023-05-16T10:38:59;21.93;;;10.17;;
5295;SDS011;2670;42.720;23.336;2023-05-16T10:41:28;15.00;;;8.37;;
5295;SDS011;2670;42.720;23.336;2023-05-16T10:43:55;15.47;;;9.13;;
5295;SDS011;2670;42.720;23.336;2023-05-16T10:46:23;12.93;;;8.40;;
5295;SDS011;2670;42.720;23.336;2023-05-16T10:48:50;15.57;;;9.93;;
5295;SDS011;2670;42.720;23.336;2023-05-16T10:51:33;15.57;;;9.70;;
5295;SDS011;2670;42.720;23.336;2023-05-16T10:54:05;15.03;;;8.93;;
5295;SDS011;2670;42.720;23.336;2023-05-16T10:56:34;15.63;;;8.93;;
5295;SDS011;2670;42.720;23.336;2023-05-16T10:59:01;17.53;;;10.83;;
5295;SDS011;2670;42.720;23.336;2023-05-16T11:01:31;13.03;;;9.07;;
5295;SDS011;2670;42.720;23.336;2023-05-16T11:03:59;12.40;;;8.07;;
5295;SDS011;2670;42.720;23.336;2023-05-16T11:06:31;16.20;;;9.00;;
5295;SDS011;2670;42.720;23.336;2023-05-16T11:09:18;15.97;;;8.13;;
5295;SDS011;2670;42.720;23.336;2023-05-16T11:11:47;14.10;;;8.80;;
5295;SDS011;2670;42.720;23.336;2023-05-16T11:14:20;16.00;;;9.40;;
5295;SDS011;2670;42.720;23.336;2023-05-16T11:16:48;21.20;;;8.77;;
5295;SDS011;2670;42.720;23.336;2023-05-16T11:19:27;16.90;;;8.90;;
5295;SDS011;2670;42.720;23.336;2023-05-16T11:22:05;17.93;;;9.40;;
5295;SDS011;2670;42.720;23.336;2023-05-16T11:24:34;22.90;;;9.33;;
5295;SDS011;2670;42.720;23.336;2023-05-16T11:27:02;30.87;;;10.87;;
5295;SDS011;2670;42.720;23.336;2023-05-16T11:29:30;15.33;;;9.07;;
5295;SDS011;2670;42.720;23.336;2023-05-16T11:31:57;18.37;;;8.80;;
5295;SDS011;2670;42.720;23.336;2023-05-16T11:34:24;15.43;;;9.00;;
5295;SDS011;2670;42.720;23.336;2023-05-16T11:36:51;17.40;;;8.47;;
5295;SDS011;2670;42.720;23.336;2023-05-16T11:39:18;15.50;;;9.60;;
5295;SDS011;2670;42.720;23.336;2023-05-16T11:41:46;19.40;;;8.87;;
5295;SDS011;2670;42.720;23.336;2023-05-16T11:44:13;18.63;;;7.90;;
5295;SDS011;2670;42.720;23.336;2023-05-16T11:46:39;14.90;;;8.20;;
5295;SDS011;2670;42.720;23.336;2023-05-16T11:49:06;18.37;;;8.73;;
5295;SDS011;2670;42.720;23.336;2023-05-16T11:51:36;16.23;;;9.60;;
5295;SDS011;2670;42.720;23.336;2023-05-16T11:54:03;13.17;;;8.80;;
5295;SDS011;2670;42.720;23.336;2023-05-16T11:56:30;13.07;;;8.80;;
5295;SDS011;2670;42.720;23.336;2023-05-16T11:58:59;14.93;;;7.87;;
5295;SDS011;2670;42.720;23.336;2023-05-16T12:01:30;13.67;;;8.07;;
5295;SDS011;2670;42.720;23.336;2023-05-16T12:03:58;16.23;;;9.60;;
5295;SDS011;2670;42.720;23.336;2023-05-16T12:06:25;10.23;;;7.30;;
5295;SDS011;2670;42.720;23.336;2023-05-16T12:08:53;11.43;;;7.20;;
5295;SDS011;2670;42.720;23.336;2023-05-16T12:11:21;28.90;;;8.53;;
5295;SDS011;2670;42.720;23.336;2023-05-16T12:13:48;18.30;;;7.03;;
5295;SDS011;2670;42.720;23.336;2023-05-16T12:16:17;16.97;;;8.00;;
5295;SDS011;2670;42.720;23.336;2023-05-16T12:18:44;13.80;;;7.13;;
5295;SDS011;2670;42.720;23.336;2023-05-16T12:21:11;17.53;;;7.60;;
5295;SDS011;2670;42.720;23.336;2023-05-16T12:23:38;16.17;;;7.93;;
5295;SDS011;2670;42.720;23.336;2023-05-16T12:26:07;17.03;;;8.10;;
5295;SDS011;2670;42.720;23.336;2023-05-16T12:28:34;15.30;;;7.80;;
5295;SDS011;2670;42.720;23.336;2023-05-16T12:31:03;17.70;;;10.57;;
5295;SDS011;2670;42.720;23.336;2023-05-16T12:33:37;28.80;;;8.63;;
5295;SDS011;2670;42.720;23.336;2023-05-16T12:36:04;18.27;;;8.10;;
5295;SDS011;2670;42.720;23.336;2023-05-16T12:38:38;12.50;;;7.40;;
5295;SDS011;2670;42.720;23.336;2023-05-16T12:41:05;18.23;;;7.73;;
5295;SDS011;2670;42.720;23.336;2023-05-16T12:43:32;22.10;;;7.90;;
5295;SDS011;2670;42.720;23.336;2023-05-16T12:45:58;11.03;;;6.67;;
5295;SDS011;2670;42.720;23.336;2023-05-16T12:48:28;15.37;;;7.43;;
5295;SDS011;2670;42.720;23.336;2023-05-16T12:51:08;20.17;;;8.80;;
5295;SDS011;2670;42.720;23.336;2023-05-16T12:53:40;14.17;;;8.70;;
5295;SDS011;2670;42.720;23.336;2023-05-16T12:56:07;16.53;;;8.77;;
5295;SDS011;2670;42.720;23.336;2023-05-16T12:58:34;12.70;;;8.33;;
5295;SDS011;2670;42.720;23.336;2023-05-16T13:01:01;18.03;;;8.93;;
5295;SDS011;2670;42.720;23.336;2023-05-16T13:03:28;21.43;;;8.50;;
5295;SDS011;2670;42.720;23.336;2023-05-16T13:05:55;20.80;;;9.90;;
5295;SDS011;2670;42.720;23.336;2023-05-16T13:08:23;18.17;;;10.80;;
5295;SDS011;2670;42.720;23.336;2023-05-16T13:10:50;21.33;;;9.70;;
5295;SDS011;2670;42.720;23.336;2023-05-16T13:13:17;16.83;;;7.87;;
5295;SDS011;2670;42.720;23.336;2023-05-16T13:15:44;14.57;;;8.27;;
5295;SDS011;2670;42.720;23.336;2023-05-16T13:18:11;20.47;;;8.70;;
5295;SDS011;2670;42.720;23.336;2023-05-16T13:20:38;11.97;;;8.27;;
5295;SDS011;2670;42.720;23.336;2023-05-16T13:23:05;27.47;;;9.13;;
5295;SDS011;2670;42.720;23.336;2023-05-16T13:25:33;19.03;;;10.33;;
5295;SDS011;2670;42.720;23.336;2023-05-16T13:28:00;17.97;;;9.03;;
5295;SDS011;2670;42.720;23.336;2023-05-16T13:30:26;21.47;;;9.00;;
5295;SDS011;2670;42.720;23.336;2023-05-16T13:32:54;18.50;;;8.50;;
5295;SDS011;2670;42.720;23.336;2023-05-16T13:35:21;14.03;;;8.30;;
5295;SDS011;2670;42.720;23.336;2023-05-16T13:37:47;24.13;;;8.87;;
5295;SDS011;2670;42.720;23.336;2023-05-16T13:40:14;15.30;;;8.40;;
5295;SDS011;2670;42.720;23.336;2023-05-16T13:42:42;24.30;;;9.33;;
5295;SDS011;2670;42.720;23.336;2023-05-16T13:45:09;17.80;;;9.10;;
5295;SDS011;2670;42.720;23.336;2023-05-16T13:47:38;18.53;;;8.30;;
5295;SDS011;2670;42.720;23.336;2023-05-16T13:50:06;11.57;;;7.80;;
5295;SDS011;2670;42.720;23.336;2023-05-16T13:52:34;12.90;;;8.80;;
5295;SDS011;2670;42.720;23.336;2023-05-16T13:55:05;16.10;;;9.03;;
5295;SDS011;2670;42.720;23.336;2023-05-16T13:57:33;21.70;;;8.97;;
5295;SDS011;2670;42.720;23.336;2023-05-16T14:00:03;22.07;;;9.00;;
5295;SDS011;2670;42.720;23.336;2023-05-16T14:02:36;16.77;;;8.47;;
5295;SDS011;2670;42.720;23.336;2023-05-16T14:05:03;21.57;;;14.57;;
5295;SDS011;2670;42.720;23.336;2023-05-16T14:07:30;32.07;;;21.73;;
5295;SDS011;2670;42.720;23.336;2023-05-16T14:09:56;38.70;;;21.80;;
5295;SDS011;2670;42.720;23.336;2023-05-16T14:12:23;26.67;;;15.63;;
5295;SDS011;2670;42.720;23.336;2023-05-16T14:14:50;29.03;;;17.10;;
5295;SDS011;2670;42.720;23.336;2023-05-16T14:17:20;30.00;;;16.33;;
5295;SDS011;2670;42.720;23.336;2023-05-16T14:19:46;29.57;;;14.63;;
5295;SDS011;2670;42.720;23.336;2023-05-16T14:22:13;24.37;;;14.73;;
5295;SDS011;2670;42.720;23.336;2023-05-16T14:24:40;24.20;;;12.43;;
5295;SDS011;2670;42.720;23.336;2023-05-16T14:27:06;17.33;;;10.90;;
5295;SDS011;2670;42.720;23.336;2023-05-16T14:29:33;28.03;;;12.87;;
5295;SDS011;2670;42.720;23.336;2023-05-16T14:32:00;27.37;;;13.17;;
5295;SDS011;2670;42.720;23.336;2023-05-16T14:34:28;34.33;;;15.10;;
5295;SDS011;2670;42.720;23.336;2023-05-16T14:36:54;24.90;;;13.60;;
5295;SDS011;2670;42.720;23.336;2023-05-16T14:39:21;22.20;;;14.27;;
5295;SDS011;2670;42.720;23.336;2023-05-16T14:41:48;49.70;;;24.90;;